createdAt,value
2019-02-22T00:02:00.671Z,7.95
2019-02-22T00:04:30.152Z,8.01
2019-02-22T00:06:59.624Z,7.99
2019-02-22T00:09:29.100Z,8.02
2019-02-22T00:11:58.566Z,8.01
2019-02-22T00:14:28.602Z,8.05
2019-02-22T00:16:58.073Z,8.02
2019-02-22T00:19:27.547Z,7.97
2019-02-22T00:21:57.021Z,7.99
2019-02-22T00:24:26.520Z,7.99
2019-02-22T00:26:55.999Z,8.03
2019-02-22T00:29:25.478Z,8.00
2019-02-22T00:31:54.957Z,8.01
2019-02-22T00:34:24.548Z,8.05
2019-02-22T00:36:54.293Z,8.04
2019-02-22T00:39:23.756Z,8.06
2019-02-22T00:41:53.237Z,8.00
2019-02-22T00:44:22.789Z,8.00
2019-02-22T00:46:52.259Z,8.02
2019-02-22T00:49:22.100Z,7.99
2019-02-22T00:51:51.566Z,8.04
2019-02-22T00:54:21.120Z,8.08
2019-02-22T00:56:50.528Z,8.08
2019-02-22T00:59:20.002Z,8.10
2019-02-22T01:01:50.151Z,8.08
2019-02-22T01:04:20.045Z,8.11
2019-02-22T01:06:49.627Z,8.10
2019-02-22T01:09:19.108Z,8.13
2019-02-22T01:11:48.585Z,8.14
2019-02-22T01:14:18.058Z,8.08
2019-02-22T01:16:47.532Z,8.12
2019-02-22T01:19:17.016Z,8.15
2019-02-22T01:21:46.477Z,8.17
2019-02-22T01:24:16.311Z,8.17
2019-02-22T01:26:46.162Z,8.14
2019-02-22T01:29:15.950Z,8.21
2019-02-22T01:31:45.423Z,8.20
2019-02-22T01:34:14.964Z,8.18
2019-02-22T01:36:44.622Z,8.18
2019-02-22T01:39:14.094Z,8.23
2019-02-22T01:41:43.917Z,8.24
2019-02-22T01:44:40.459Z,8.23
2019-02-22T01:47:10.254Z,8.26
2019-02-22T01:49:39.903Z,8.22
2019-02-22T01:52:09.686Z,8.29
2019-02-22T01:54:39.136Z,8.30
2019-02-22T01:57:08.598Z,8.26
2019-02-22T01:59:38.082Z,8.32
2019-02-22T02:02:07.552Z,8.29
2019-02-22T02:04:37.404Z,8.31
2019-02-22T02:07:07.293Z,8.29
2019-02-22T02:09:38.570Z,8.29
2019-02-22T02:12:08.125Z,8.29
2019-02-22T02:14:37.780Z,8.31
2019-02-22T02:17:07.504Z,8.34
2019-02-22T02:19:37.166Z,8.38
2019-02-22T02:22:07.089Z,8.37
2019-02-22T02:24:37.140Z,8.33
2019-02-22T02:27:07.852Z,8.33
2019-02-22T02:29:37.494Z,8.40
2019-02-22T02:32:07.150Z,8.39
2019-02-22T02:34:36.810Z,8.37
2019-02-22T02:37:06.545Z,8.39
2019-02-22T02:39:36.177Z,8.41
2019-02-22T02:42:06.031Z,8.36
2019-02-22T02:44:36.037Z,8.33
2019-02-22T02:47:05.606Z,8.35
2019-02-22T02:49:35.144Z,8.40
2019-02-22T02:52:04.985Z,8.43
2019-02-22T02:54:34.512Z,8.44
2019-02-22T02:57:04.272Z,8.42
2019-02-22T02:59:33.998Z,8.37
2019-02-22T03:02:05.120Z,8.37
2019-02-22T03:04:34.764Z,8.36
2019-02-22T03:07:12.137Z,8.31
2019-02-22T03:09:41.948Z,8.30
2019-02-22T03:12:11.968Z,8.29
2019-02-22T03:14:41.720Z,8.31
2019-02-22T03:17:11.582Z,8.37
2019-02-22T03:19:41.059Z,8.28
2019-02-22T03:22:10.746Z,8.28
2019-02-22T03:24:40.628Z,8.27
2019-02-22T03:27:10.113Z,8.25
2019-02-22T03:29:39.599Z,8.31
2019-02-22T03:32:09.329Z,8.28
2019-02-22T03:34:39.169Z,8.29
2019-02-22T03:37:10.273Z,8.29
2019-02-22T03:39:39.742Z,8.23
2019-02-22T03:42:09.222Z,8.24
2019-02-22T03:44:38.690Z,8.25
2019-02-22T03:47:08.157Z,8.20
2019-02-22T03:49:39.438Z,8.21
2019-02-22T03:52:19.874Z,8.16
2019-02-22T03:54:49.688Z,8.15
2019-02-22T03:57:19.157Z,8.13
2019-02-22T03:59:51.089Z,8.10
2019-02-22T04:02:19.817Z,8.08
2019-02-22T04:04:49.281Z,8.06
2019-02-22T04:07:18.752Z,8.08
2019-02-22T04:09:48.236Z,8.05
2019-02-22T04:12:18.021Z,8.09
2019-02-22T04:14:47.638Z,8.07
2019-02-22T04:17:17.128Z,8.03
2019-02-22T04:19:46.577Z,8.01
2019-02-22T04:22:16.046Z,8.02
2019-02-22T04:24:45.689Z,7.96
2019-02-22T04:27:15.187Z,7.98
2019-02-22T04:29:44.664Z,7.91
2019-02-22T04:32:14.142Z,7.89
2019-02-22T04:34:43.604Z,7.89
2019-02-22T04:37:13.427Z,7.87
2019-02-22T04:39:42.861Z,7.86
2019-02-22T04:42:12.374Z,7.81
2019-02-22T04:44:41.848Z,7.79
2019-02-22T04:47:11.633Z,7.78
2019-02-22T04:49:41.108Z,7.79
2019-02-22T04:52:10.585Z,7.79
2019-02-22T04:54:41.699Z,7.78
2019-02-22T04:57:11.431Z,7.80
2019-02-22T04:59:41.071Z,7.80
2019-02-22T05:02:10.556Z,7.77
2019-02-22T05:04:40.034Z,7.76
2019-02-22T05:07:09.824Z,7.72
2019-02-22T05:09:39.301Z,7.74
2019-02-22T05:12:11.074Z,7.77
2019-02-22T05:14:40.298Z,7.74
2019-02-22T05:17:09.780Z,7.70
2019-02-22T05:19:39.248Z,7.69
2019-02-22T05:22:08.725Z,7.74
2019-02-22T05:24:38.245Z,7.74
2019-02-22T05:27:07.701Z,7.71
2019-02-22T05:29:37.159Z,7.72
2019-02-22T05:32:06.629Z,7.68
2019-02-22T05:34:36.095Z,7.70
2019-02-22T05:37:05.607Z,7.71
2019-02-22T05:39:35.071Z,7.69
2019-02-22T05:42:04.722Z,7.68
2019-02-22T05:44:34.471Z,7.68
2019-02-22T05:47:04.292Z,7.64
2019-02-22T05:49:33.754Z,7.60
2019-02-22T05:52:03.484Z,7.60
2019-02-22T05:54:33.210Z,7.63
2019-02-22T05:57:02.724Z,7.58
2019-02-22T05:59:32.177Z,7.57
2019-02-22T06:02:01.663Z,7.56
2019-02-22T06:04:31.129Z,7.53
2019-02-22T06:07:00.603Z,7.55
2019-02-22T06:09:30.354Z,7.51
2019-02-22T06:11:59.811Z,7.54
2019-02-22T06:14:29.282Z,7.53
2019-02-22T06:16:58.766Z,7.50
2019-02-22T06:19:28.230Z,7.53
2019-02-22T06:21:57.701Z,7.49
2019-02-22T06:24:27.156Z,7.47
2019-02-22T06:26:56.753Z,7.49
2019-02-22T06:29:26.221Z,7.47
2019-02-22T06:31:56.122Z,7.50
2019-02-22T06:34:25.588Z,7.50
2019-02-22T06:37:01.965Z,7.53
2019-02-22T06:39:26.696Z,7.51
2019-02-22T06:41:56.179Z,7.46
2019-02-22T06:44:25.812Z,7.45
2019-02-22T06:46:55.305Z,7.41
2019-02-22T06:49:25.100Z,7.38
2019-02-22T06:51:54.592Z,7.37
2019-02-22T06:54:24.095Z,7.33
2019-02-22T06:56:53.561Z,7.29
2019-02-22T06:59:23.046Z,7.25
2019-02-22T07:01:52.861Z,7.22
2019-02-22T07:04:22.335Z,7.22
2019-02-22T07:06:51.804Z,7.25
2019-02-22T07:09:21.298Z,7.16
2019-02-22T07:11:52.420Z,7.15
2019-02-22T07:14:21.890Z,7.15
2019-02-22T07:16:51.336Z,7.14
2019-02-22T07:19:20.824Z,7.06
2019-02-22T07:21:53.029Z,6.96
2019-02-22T07:24:21.814Z,6.90
2019-02-22T07:26:51.279Z,6.87
2019-02-22T07:29:22.212Z,6.83
2019-02-22T07:31:51.925Z,6.77
2019-02-22T07:34:21.741Z,6.76
2019-02-22T07:36:51.207Z,6.68
2019-02-22T07:39:27.929Z,6.68
2019-02-22T07:41:51.917Z,6.61
2019-02-22T07:44:21.453Z,6.70
2019-02-22T07:46:51.224Z,6.73
2019-02-22T07:49:23.648Z,6.70
2019-02-22T07:51:53.435Z,6.60
2019-02-22T07:54:22.950Z,6.58
2019-02-22T07:56:52.430Z,6.54
2019-02-22T07:59:22.516Z,6.54
2019-02-22T08:02:10.992Z,6.44
2019-02-22T08:04:39.951Z,6.44
2019-02-22T08:07:08.881Z,6.40
2019-02-22T08:09:38.474Z,6.40
2019-02-22T08:12:08.048Z,6.39
2019-02-22T08:14:37.636Z,6.37
2019-02-22T08:17:07.253Z,6.32
2019-02-22T08:19:36.804Z,6.37
2019-02-22T08:22:06.467Z,6.45
2019-02-22T08:24:36.096Z,6.24
2019-02-22T08:27:05.660Z,6.09
2019-02-22T08:29:35.231Z,5.81
2019-02-22T08:32:15.593Z,5.48
2019-02-22T08:34:45.891Z,5.08
2019-02-22T08:37:15.596Z,5.11
2019-02-22T08:39:45.188Z,5.16
2019-02-22T08:42:15.064Z,5.19
2019-02-22T08:44:44.686Z,5.08
2019-02-22T08:47:14.245Z,5.05
2019-02-22T08:49:43.814Z,5.11
2019-02-22T08:52:13.388Z,5.06
2019-02-22T08:54:46.934Z,4.90
2019-02-22T08:57:14.322Z,5.06
2019-02-22T08:59:43.908Z,4.96
2019-02-22T09:02:14.926Z,4.80
2019-02-22T09:04:44.766Z,4.79
2019-02-22T09:07:14.355Z,5.10
2019-02-22T09:09:43.970Z,5.27
2019-02-22T09:12:13.576Z,5.59
2019-02-22T09:14:42.533Z,5.50
2019-02-22T09:17:11.464Z,5.18
2019-02-22T09:19:41.362Z,5.08
2019-02-22T09:22:21.826Z,5.09
2019-02-22T09:24:41.540Z,5.09
2019-02-22T09:27:29.845Z,5.34
2019-02-22T09:29:59.328Z,5.24
2019-02-22T09:32:28.241Z,5.45
2019-02-22T09:34:57.255Z,4.96
2019-02-22T09:37:26.197Z,4.94
2019-02-22T09:39:55.663Z,4.82
2019-02-22T09:42:25.142Z,4.93
2019-02-22T09:44:54.608Z,4.74
2019-02-22T09:47:24.164Z,4.67
2019-02-22T09:49:53.656Z,4.62
2019-02-22T09:52:23.124Z,4.79
2019-02-22T09:54:52.867Z,4.61
2019-02-22T09:57:22.602Z,4.60
2019-02-22T09:59:52.122Z,4.58
2019-02-22T10:02:21.803Z,4.61
2019-02-22T10:04:55.013Z,4.75
2019-02-22T10:07:22.428Z,4.91
2019-02-22T10:09:52.251Z,4.91
2019-02-22T10:12:21.732Z,5.10
2019-02-22T10:14:51.586Z,4.75
2019-02-22T10:17:21.046Z,4.33
2019-02-22T10:19:50.594Z,4.28
2019-02-22T10:22:20.076Z,4.14
2019-02-22T10:24:49.727Z,4.33
2019-02-22T10:27:19.435Z,4.40
2019-02-22T10:29:48.910Z,4.00
2019-02-22T10:32:18.364Z,4.03
2019-02-22T10:34:48.240Z,3.98
2019-02-22T10:37:17.700Z,3.77
2019-02-22T10:39:47.165Z,3.95
2019-02-22T10:42:16.675Z,4.03
2019-02-22T10:44:46.154Z,3.79
2019-02-22T10:47:15.700Z,3.87
2019-02-22T10:49:45.178Z,3.93
2019-02-22T10:52:14.659Z,3.87
2019-02-22T10:54:44.134Z,3.57
2019-02-22T10:57:13.599Z,3.56
2019-02-22T10:59:43.061Z,3.43
2019-02-22T11:02:12.897Z,3.46
2019-02-22T11:04:42.362Z,3.30
2019-02-22T11:07:11.874Z,3.39
2019-02-22T11:09:41.334Z,3.52
2019-02-22T11:12:11.452Z,3.41
2019-02-22T11:14:40.907Z,3.55
2019-02-22T11:17:10.656Z,3.68
2019-02-22T11:19:40.217Z,3.27
2019-02-22T11:22:09.641Z,3.39
2019-02-22T11:24:39.203Z,3.19
2019-02-22T11:27:08.697Z,3.27
2019-02-22T11:29:38.212Z,3.33
2019-02-22T11:32:07.961Z,3.40
2019-02-22T11:34:37.422Z,3.50
2019-02-22T11:37:06.934Z,3.52
2019-02-22T11:39:36.385Z,3.50
2019-02-22T11:42:05.913Z,3.30
2019-02-22T11:44:40.144Z,3.34
2019-02-22T11:47:06.743Z,3.44
2019-02-22T11:49:36.256Z,3.36
2019-02-22T11:52:05.824Z,3.48
2019-02-22T11:54:35.604Z,3.31
2019-02-22T11:57:05.396Z,3.13
2019-02-22T11:59:34.854Z,3.05
2019-02-22T12:02:04.405Z,2.80
2019-02-22T12:04:33.864Z,2.67
2019-02-22T12:07:03.342Z,2.75
2019-02-22T12:09:32.806Z,2.97
2019-02-22T12:12:02.280Z,3.04
2019-02-22T12:14:31.773Z,3.07
2019-02-22T12:17:01.280Z,3.00
2019-02-22T12:19:31.088Z,3.00
2019-02-22T12:22:00.884Z,3.09
2019-02-22T12:24:30.341Z,2.82
2019-02-22T12:26:59.879Z,2.98
2019-02-22T12:29:29.461Z,2.95
2019-02-22T12:31:59.232Z,2.73
2019-02-22T12:34:28.702Z,2.80
2019-02-22T12:36:58.183Z,2.72
2019-02-22T12:39:27.931Z,2.73
2019-02-22T12:41:57.397Z,2.78
2019-02-22T12:44:26.934Z,2.84
2019-02-22T12:46:56.420Z,2.74
2019-02-22T12:49:25.895Z,2.91
2019-02-22T12:51:55.778Z,2.88
2019-02-22T12:54:25.239Z,2.93
2019-02-22T12:56:57.566Z,2.85
2019-02-22T12:59:26.244Z,2.53
2019-02-22T13:01:55.724Z,2.36
2019-02-22T13:04:25.186Z,2.47
2019-02-22T13:06:54.925Z,2.53
2019-02-22T13:09:36.005Z,2.40
2019-02-22T13:11:55.865Z,2.57
2019-02-22T13:14:25.360Z,2.52
2019-02-22T13:16:54.798Z,2.46
2019-02-22T13:19:24.536Z,2.70
2019-02-22T13:21:54.096Z,2.81
2019-02-22T13:24:23.617Z,3.03
2019-02-22T13:26:53.093Z,3.03
2019-02-22T13:29:22.978Z,2.99
2019-02-22T13:31:53.411Z,3.12
2019-02-22T13:34:22.840Z,3.14
2019-02-22T13:36:52.636Z,3.09
2019-02-22T13:39:22.096Z,2.94
2019-02-22T13:41:51.581Z,3.07
2019-02-22T13:44:21.048Z,3.23
2019-02-22T13:46:50.533Z,3.56
2019-02-22T13:49:20.010Z,3.91
2019-02-22T13:51:49.486Z,4.55
2019-02-22T13:54:18.954Z,5.69
2019-02-22T13:56:48.424Z,6.19
2019-02-22T13:59:17.878Z,6.38
2019-02-22T14:01:47.357Z,6.05
2019-02-22T14:04:16.873Z,5.20
2019-02-22T14:06:46.292Z,5.24
2019-02-22T14:09:15.773Z,4.77
2019-02-22T14:11:45.279Z,4.45
2019-02-22T14:14:14.753Z,4.41
2019-02-22T14:16:44.246Z,4.72
2019-02-22T14:19:13.709Z,4.86
2019-02-22T14:21:43.169Z,5.08
2019-02-22T14:24:12.637Z,5.24
2019-02-22T14:26:42.237Z,5.13
2019-02-22T14:29:11.946Z,5.12
2019-02-22T14:31:41.424Z,4.99
2019-02-22T14:34:11.267Z,5.15
2019-02-22T14:36:41.024Z,5.09
2019-02-22T14:39:10.861Z,4.79
2019-02-22T14:41:40.313Z,4.56
2019-02-22T14:44:09.791Z,4.36
2019-02-22T14:46:39.254Z,4.19
2019-02-22T14:49:08.730Z,3.96
2019-02-22T14:51:38.308Z,3.81
2019-02-22T14:54:08.033Z,3.58
2019-02-22T14:56:37.521Z,3.30
2019-02-22T14:59:06.996Z,3.16
2019-02-22T15:01:36.491Z,3.22
2019-02-22T15:04:06.253Z,3.39
2019-02-22T15:06:35.903Z,3.99
2019-02-22T15:09:06.075Z,4.49
2019-02-22T15:11:35.547Z,4.69
2019-02-22T15:14:05.024Z,5.10
2019-02-22T15:16:49.260Z,5.41
2019-02-22T15:19:21.978Z,5.74
2019-02-22T15:21:50.663Z,6.06
2019-02-22T15:24:20.151Z,6.34
2019-02-22T15:26:49.609Z,6.44
2019-02-22T15:29:19.070Z,5.59
2019-02-22T15:31:48.543Z,5.93
2019-02-22T15:34:18.018Z,5.53
2019-02-22T15:36:47.751Z,5.25
2019-02-22T15:39:17.247Z,5.05
2019-02-22T15:41:47.070Z,4.83
2019-02-22T15:44:17.289Z,4.53
2019-02-22T15:46:47.003Z,4.31
2019-02-22T15:49:16.634Z,3.87
2019-02-22T15:51:46.430Z,3.69
2019-02-22T15:54:15.976Z,3.41
2019-02-22T15:56:45.456Z,3.26
2019-02-22T15:59:15.195Z,3.26
2019-02-22T16:01:54.862Z,3.22
2019-02-22T16:04:17.478Z,3.09
2019-02-22T16:06:47.134Z,3.08
2019-02-22T16:09:16.960Z,3.03
2019-02-22T16:11:46.799Z,2.95
2019-02-22T16:14:16.790Z,2.92
2019-02-22T16:16:46.247Z,2.79
2019-02-22T16:19:16.004Z,2.63
2019-02-22T16:21:45.476Z,2.45
2019-02-22T16:24:14.969Z,2.26
2019-02-22T16:26:44.605Z,2.09
2019-02-22T16:29:14.096Z,1.93
2019-02-22T16:31:43.566Z,1.78
2019-02-22T16:34:13.056Z,1.67
2019-02-22T16:36:42.526Z,1.55
2019-02-22T16:39:12.089Z,1.36
2019-02-22T16:41:41.981Z,1.21
2019-02-22T16:44:12.112Z,1.16
2019-02-22T16:46:41.919Z,1.02
2019-02-22T16:49:11.389Z,0.93
2019-02-22T16:51:41.220Z,0.80
2019-02-22T16:54:10.722Z,0.77
2019-02-22T16:56:40.192Z,0.74
2019-02-22T16:59:09.670Z,0.74
2019-02-22T17:01:39.276Z,0.65
2019-02-22T17:04:09.008Z,0.61
2019-02-22T17:06:38.518Z,0.56
2019-02-22T17:09:08.071Z,0.53
2019-02-22T17:11:38.140Z,0.44
2019-02-22T17:14:07.619Z,0.34
2019-02-22T17:16:45.457Z,0.28
2019-02-22T17:19:08.266Z,0.24
2019-02-22T17:21:37.746Z,0.13
2019-02-22T17:24:07.227Z,0.05
2019-02-22T17:26:36.684Z,0.00
2019-02-22T17:29:06.189Z,-0.03
2019-02-22T17:31:35.670Z,-0.07
2019-02-22T17:34:05.503Z,-0.13
2019-02-22T17:36:35.308Z,-0.19
2019-02-22T17:39:05.957Z,-0.24
2019-02-22T17:41:35.754Z,-0.24
2019-02-22T17:44:05.255Z,-0.22
2019-02-22T17:46:34.719Z,-0.42
2019-02-22T17:49:04.200Z,-0.64
2019-02-22T17:51:33.977Z,-0.80
2019-02-22T17:54:03.542Z,-0.82
2019-02-22T17:56:33.204Z,-0.86
2019-02-22T17:59:02.717Z,-0.81
2019-02-22T18:01:32.527Z,-0.78
2019-02-22T18:04:02.073Z,-0.79
2019-02-22T18:06:31.554Z,-0.77
2019-02-22T18:09:01.060Z,-0.79
2019-02-22T18:11:30.522Z,-0.87
2019-02-22T18:14:00.272Z,-0.91
2019-02-22T18:16:29.756Z,-0.96
2019-02-22T18:18:59.231Z,-0.98
2019-02-22T18:21:28.988Z,-1.01
2019-02-22T18:23:58.466Z,-1.03
2019-02-22T18:26:28.125Z,-1.04
2019-02-22T18:28:57.614Z,-1.15
2019-02-22T18:31:27.087Z,-1.22
2019-02-22T18:33:56.579Z,-1.29
2019-02-22T18:36:26.141Z,-1.35
2019-02-22T18:38:55.668Z,-1.36
2019-02-22T18:41:25.203Z,-1.41
2019-02-22T18:43:54.743Z,-1.52
2019-02-22T18:46:24.561Z,-1.57
2019-02-22T18:48:54.122Z,-1.61
2019-02-22T18:51:23.584Z,-1.58
2019-02-22T18:53:53.078Z,-1.60
2019-02-22T18:56:22.665Z,-1.67
2019-02-22T18:58:52.507Z,-1.65
2019-02-22T19:01:21.980Z,-1.70
2019-02-22T19:03:51.490Z,-1.77
2019-02-22T19:06:21.413Z,-1.84
2019-02-22T19:08:50.909Z,-1.89
2019-02-22T19:11:20.413Z,-1.87
2019-02-22T19:13:50.268Z,-1.85
2019-02-22T19:16:19.738Z,-1.89
2019-02-22T19:18:49.556Z,-1.88
2019-02-22T19:21:19.033Z,-1.89
2019-02-22T19:23:48.512Z,-1.92
2019-02-22T19:26:18.292Z,-1.96
2019-02-22T19:28:47.777Z,-1.90
2019-02-22T19:31:17.316Z,-1.89
2019-02-22T19:33:49.745Z,-1.88
2019-02-22T19:36:17.975Z,-1.92
2019-02-22T19:38:47.467Z,-1.97
2019-02-22T19:41:16.946Z,-1.95
2019-02-22T19:43:46.483Z,-1.99
2019-02-22T19:46:16.288Z,-2.03
2019-02-22T19:48:45.779Z,-2.15
2019-02-22T19:51:15.258Z,-2.17
2019-02-22T19:53:44.848Z,-2.16
2019-02-22T19:56:14.395Z,-2.17
2019-02-22T19:58:43.953Z,-2.15
2019-02-22T20:01:13.735Z,-2.12
2019-02-22T20:03:43.199Z,-2.11
2019-02-22T20:06:12.688Z,-2.04
2019-02-22T20:08:42.168Z,-2.05
2019-02-22T20:11:11.727Z,-2.04
2019-02-22T20:13:41.199Z,-2.09
2019-02-22T20:16:10.852Z,-2.17
2019-02-22T20:18:40.327Z,-2.20
2019-02-22T20:21:09.822Z,-2.20
2019-02-22T20:23:39.318Z,-2.31
2019-02-22T20:26:09.240Z,-2.44
2019-02-22T20:28:39.023Z,-2.51
2019-02-22T20:31:19.594Z,-2.53
2019-02-22T20:33:39.686Z,-2.56
2019-02-22T20:36:09.189Z,-2.58
2019-02-22T20:38:38.656Z,-2.61
2019-02-22T20:41:08.231Z,-2.65
2019-02-22T20:43:37.686Z,-2.61
2019-02-22T20:46:07.345Z,-2.65
2019-02-22T20:48:37.103Z,-2.61
2019-02-22T20:51:06.838Z,-2.62
2019-02-22T20:53:36.307Z,-2.54
2019-02-22T20:56:05.953Z,-2.62
2019-02-22T20:58:35.758Z,-2.60
2019-02-22T21:01:21.852Z,-2.57
2019-02-22T21:03:53.289Z,-2.59
2019-02-22T21:06:24.657Z,-2.60
2019-02-22T21:08:54.471Z,-2.59
2019-02-22T21:11:24.274Z,-2.59
2019-02-22T21:13:54.053Z,-2.55
2019-02-22T21:16:23.521Z,-2.56
2019-02-22T21:18:53.001Z,-2.53
2019-02-22T21:21:22.659Z,-2.61
2019-02-22T21:23:52.180Z,-2.69
2019-02-22T21:26:21.624Z,-2.76
2019-02-22T21:28:51.092Z,-2.85
2019-02-22T21:31:20.570Z,-2.83
2019-02-22T21:33:50.064Z,-2.77
2019-02-22T21:36:19.544Z,-2.75
2019-02-22T21:38:49.016Z,-2.83
2019-02-22T21:41:18.537Z,-2.90
2019-02-22T21:43:48.683Z,-2.96
2019-02-22T21:46:18.480Z,-2.93
2019-02-22T21:48:48.477Z,-2.93
2019-02-22T21:51:18.473Z,-3.05
2019-02-22T21:53:48.290Z,-2.95
2019-02-22T21:56:17.763Z,-2.94
2019-02-22T21:58:48.836Z,-2.90
2019-02-22T22:01:18.891Z,-2.89
2019-02-22T22:03:51.250Z,-2.84
2019-02-22T22:06:19.788Z,-2.88
2019-02-22T22:08:49.277Z,-2.99
2019-02-22T22:11:19.060Z,-3.07
2019-02-22T22:13:48.894Z,-3.11
2019-02-22T22:16:18.371Z,-3.11
2019-02-22T22:18:48.093Z,-3.15
2019-02-22T22:21:17.596Z,-3.12
2019-02-22T22:23:47.051Z,-3.17
2019-02-22T22:26:16.815Z,-3.21
2019-02-22T22:28:46.269Z,-3.26
2019-02-22T22:31:15.742Z,-3.25
2019-02-22T22:33:45.235Z,-3.27
2019-02-22T22:36:14.968Z,-3.24
2019-02-22T22:38:44.442Z,-3.24
2019-02-22T22:41:13.927Z,-3.24
2019-02-22T22:43:43.648Z,-3.08
2019-02-22T22:46:13.120Z,-2.79
2019-02-22T22:48:50.050Z,-2.82
2019-02-22T22:51:13.766Z,-2.86
2019-02-22T22:53:43.221Z,-2.90
2019-02-22T22:56:12.694Z,-3.12
2019-02-22T22:58:42.267Z,-3.19
2019-02-22T23:01:13.352Z,-3.22
2019-02-22T23:03:43.092Z,-3.23
2019-02-22T23:06:12.673Z,-3.08
2019-02-22T23:08:42.132Z,-3.12
2019-02-22T23:11:11.608Z,-3.15
2019-02-22T23:13:41.341Z,-3.23
2019-02-22T23:16:10.808Z,-3.21
2019-02-22T23:18:41.908Z,-3.17
2019-02-22T23:21:11.379Z,-3.11
2019-02-22T23:23:40.863Z,-2.97
2019-02-22T23:26:10.314Z,-2.93
2019-02-22T23:28:41.737Z,-2.66
2019-02-22T23:31:11.187Z,-2.86
2019-02-22T23:33:40.657Z,-2.94
2019-02-22T23:36:10.118Z,-2.86
2019-02-22T23:38:39.610Z,-3.12
2019-02-22T23:41:09.346Z,-3.24
2019-02-22T23:43:38.883Z,-3.27
2019-02-22T23:46:08.353Z,-3.33
2019-02-22T23:48:37.842Z,-3.21
2019-02-22T23:51:10.433Z,-3.22
2019-02-22T23:53:39.905Z,-3.27
2019-02-22T23:56:09.440Z,-3.16
2019-02-22T23:58:40.990Z,-3.41
